sensor_id;sensor_type;location;lat;lon;timestamp;temperature;humidity
21246;DHT22;10781;50.928;4.440;2023-06-04T00:02:26;17.00;70.60
21246;DHT22;10781;50.928;4.440;2023-06-04T00:04:52;17.00;71.00
21246;DHT22;10781;50.928;4.440;2023-06-04T00:07:18;17.00;71.30
21246;DHT22;10781;50.928;4.440;2023-06-04T00:09:43;16.80;71.90
21246;DHT22;10781;50.928;4.440;2023-06-04T00:12:12;16.80;72.10
21246;DHT22;10781;50.928;4.440;2023-06-04T00:14:38;16.80;72.50
21246;DHT22;10781;50.928;4.440;2023-06-04T00:17:04;16.60;74.20
21246;DHT22;10781;50.928;4.440;2023-06-04T00:19:30;16.80;73.60
21246;DHT22;10781;50.928;4.440;2023-06-04T00:21:55;16.60;73.00
21246;DHT22;10781;50.928;4.440;2023-06-04T00:24:21;16.20;72.90
21246;DHT22;10781;50.928;4.440;2023-06-04T00:26:47;15.90;74.20
21246;DHT22;10781;50.928;4.440;2023-06-04T00:29:12;15.70;75.20
21246;DHT22;10781;50.928;4.440;2023-06-04T00:31:38;15.70;76.20
21246;DHT22;10781;50.928;4.440;2023-06-04T00:34:04;15.70;75.70
21246;DHT22;10781;50.928;4.440;2023-06-04T00:36:30;15.60;76.30
21246;DHT22;10781;50.928;4.440;2023-06-04T00:38:56;15.60;76.70
21246;DHT22;10781;50.928;4.440;2023-06-04T00:41:21;15.50;77.60
21246;DHT22;10781;50.928;4.440;2023-06-04T00:43:47;15.50;77.00
21246;DHT22;10781;50.928;4.440;2023-06-04T00:46:27;15.30;77.80
21246;DHT22;10781;50.928;4.440;2023-06-04T00:48:54;15.10;78.70
21246;DHT22;10781;50.928;4.440;2023-06-04T00:51:21;15.10;79.20
21246;DHT22;10781;50.928;4.440;2023-06-04T00:53:50;15.00;79.40
21246;DHT22;10781;50.928;4.440;2023-06-04T00:56:16;15.00;80.00
21246;DHT22;10781;50.928;4.440;2023-06-04T00:58:43;15.00;80.40
21246;DHT22;10781;50.928;4.440;2023-06-04T01:03:55;14.90;81.00
21246;DHT22;10781;50.928;4.440;2023-06-04T01:06:34;15.00;81.40
21246;DHT22;10781;50.928;4.440;2023-06-04T01:09:01;14.90;81.90
21246;DHT22;10781;50.928;4.440;2023-06-04T01:11:39;14.80;82.20
21246;DHT22;10781;50.928;4.440;2023-06-04T01:14:08;14.80;83.10
21246;DHT22;10781;50.928;4.440;2023-06-04T01:16:50;14.80;84.10
21246;DHT22;10781;50.928;4.440;2023-06-04T01:22:35;14.90;85.30
21246;DHT22;10781;50.928;4.440;2023-06-04T01:25:04;14.90;85.50
21246;DHT22;10781;50.928;4.440;2023-06-04T01:27:30;14.80;86.30
21246;DHT22;10781;50.928;4.440;2023-06-04T01:29:58;14.70;87.70
21246;DHT22;10781;50.928;4.440;2023-06-04T01:32:26;14.60;88.60
21246;DHT22;10781;50.928;4.440;2023-06-04T01:34:52;14.80;89.10
21246;DHT22;10781;50.928;4.440;2023-06-04T01:37:18;14.70;90.10
21246;DHT22;10781;50.928;4.440;2023-06-04T01:39:43;14.60;90.70
21246;DHT22;10781;50.928;4.440;2023-06-04T01:42:10;14.60;91.40
21246;DHT22;10781;50.928;4.440;2023-06-04T01:44:36;14.60;91.90
21246;DHT22;10781;50.928;4.440;2023-06-04T01:47:02;14.50;92.40
21246;DHT22;10781;50.928;4.440;2023-06-04T01:49:27;14.50;93.20
21246;DHT22;10781;50.928;4.440;2023-06-04T01:51:53;14.50;93.80
21246;DHT22;10781;50.928;4.440;2023-06-04T01:54:19;14.50;94.30
21246;DHT22;10781;50.928;4.440;2023-06-04T01:56:45;14.50;94.90
21246;DHT22;10781;50.928;4.440;2023-06-04T01:59:11;14.50;95.60
21246;DHT22;10781;50.928;4.440;2023-06-04T02:01:38;14.30;96.80
21246;DHT22;10781;50.928;4.440;2023-06-04T02:04:03;14.20;98.00
21246;DHT22;10781;50.928;4.440;2023-06-04T02:06:29;14.10;99.10
21246;DHT22;10781;50.928;4.440;2023-06-04T02:08:56;14.20;99.90
21246;DHT22;10781;50.928;4.440;2023-06-04T02:11:22;14.20;99.90
21246;DHT22;10781;50.928;4.440;2023-06-04T02:13:47;14.20;99.90
21246;DHT22;10781;50.928;4.440;2023-06-04T02:16:13;14.20;99.90
21246;DHT22;10781;50.928;4.440;2023-06-04T02:18:39;14.20;99.90
21246;DHT22;10781;50.928;4.440;2023-06-04T02:21:05;14.20;99.90
21246;DHT22;10781;50.928;4.440;2023-06-04T02:23:31;14.20;99.90
21246;DHT22;10781;50.928;4.440;2023-06-04T02:25:56;14.10;99.90
21246;DHT22;10781;50.928;4.440;2023-06-04T02:28:22;14.30;99.90
21246;DHT22;10781;50.928;4.440;2023-06-04T02:30:48;14.50;99.90
21246;DHT22;10781;50.928;4.440;2023-06-04T02:33:14;14.50;99.90
21246;DHT22;10781;50.928;4.440;2023-06-04T02:35:40;14.70;99.90
21246;DHT22;10781;50.928;4.440;2023-06-04T02:38:06;14.60;99.90
21246;DHT22;10781;50.928;4.440;2023-06-04T02:40:32;14.60;99.90
21246;DHT22;10781;50.928;4.440;2023-06-04T02:42:58;14.80;99.90
21246;DHT22;10781;50.928;4.440;2023-06-04T02:45:23;14.90;99.90
21246;DHT22;10781;50.928;4.440;2023-06-04T02:47:49;14.70;99.90
21246;DHT22;10781;50.928;4.440;2023-06-04T02:50:15;14.60;99.90
21246;DHT22;10781;50.928;4.440;2023-06-04T02:52:41;14.50;99.90
21246;DHT22;10781;50.928;4.440;2023-06-04T02:55:08;14.60;99.90
21246;DHT22;10781;50.928;4.440;2023-06-04T02:57:34;14.80;99.90
21246;DHT22;10781;50.928;4.440;2023-06-04T03:00:00;14.80;99.90
21246;DHT22;10781;50.928;4.440;2023-06-04T03:02:26;14.80;99.90
21246;DHT22;10781;50.928;4.440;2023-06-04T03:04:53;15.00;99.90
21246;DHT22;10781;50.928;4.440;2023-06-04T03:07:20;14.90;99.90
21246;DHT22;10781;50.928;4.440;2023-06-04T03:09:48;14.70;99.90
21246;DHT22;10781;50.928;4.440;2023-06-04T03:12:14;14.40;99.90
21246;DHT22;10781;50.928;4.440;2023-06-04T03:14:40;14.40;99.90
21246;DHT22;10781;50.928;4.440;2023-06-04T03:17:06;14.50;99.90
21246;DHT22;10781;50.928;4.440;2023-06-04T03:19:40;14.60;99.90
21246;DHT22;10781;50.928;4.440;2023-06-04T03:22:08;14.60;99.90
21246;DHT22;10781;50.928;4.440;2023-06-04T03:24:43;14.50;99.90
21246;DHT22;10781;50.928;4.440;2023-06-04T03:27:09;14.70;99.90
21246;DHT22;10781;50.928;4.440;2023-06-04T03:29:36;14.90;99.90
21246;DHT22;10781;50.928;4.440;2023-06-04T03:32:02;14.90;99.90
21246;DHT22;10781;50.928;4.440;2023-06-04T03:34:28;14.80;99.90
21246;DHT22;10781;50.928;4.440;2023-06-04T03:36:57;14.60;99.90
21246;DHT22;10781;50.928;4.440;2023-06-04T03:39:22;14.50;99.90
21246;DHT22;10781;50.928;4.440;2023-06-04T03:41:49;14.20;99.90
21246;DHT22;10781;50.928;4.440;2023-06-04T03:44:18;14.00;99.90
21246;DHT22;10781;50.928;4.440;2023-06-04T03:46:44;13.80;99.90
21246;DHT22;10781;50.928;4.440;2023-06-04T03:49:11;13.70;99.90
21246;DHT22;10781;50.928;4.440;2023-06-04T03:51:37;13.50;99.90
21246;DHT22;10781;50.928;4.440;2023-06-04T03:54:03;13.40;99.90
21246;DHT22;10781;50.928;4.440;2023-06-04T03:56:28;13.50;99.90
21246;DHT22;10781;50.928;4.440;2023-06-04T03:58:54;13.50;99.90
21246;DHT22;10781;50.928;4.440;2023-06-04T04:01:21;13.70;99.90
21246;DHT22;10781;50.928;4.440;2023-06-04T04:03:49;14.10;99.90
21246;DHT22;10781;50.928;4.440;2023-06-04T04:06:15;14.10;99.90
21246;DHT22;10781;50.928;4.440;2023-06-04T04:08:41;14.30;99.90
21246;DHT22;10781;50.928;4.440;2023-06-04T04:11:11;14.40;99.90
21246;DHT22;10781;50.928;4.440;2023-06-04T04:13:37;14.50;99.90
21246;DHT22;10781;50.928;4.440;2023-06-04T04:16:02;14.30;99.90
21246;DHT22;10781;50.928;4.440;2023-06-04T04:18:32;14.10;99.90
21246;DHT22;10781;50.928;4.440;2023-06-04T04:20:59;13.80;99.90
21246;DHT22;10781;50.928;4.440;2023-06-04T04:23:25;13.60;99.90
21246;DHT22;10781;50.928;4.440;2023-06-04T04:25:52;13.70;99.90
21246;DHT22;10781;50.928;4.440;2023-06-04T04:28:19;13.70;99.90
21246;DHT22;10781;50.928;4.440;2023-06-04T04:30:46;13.80;99.90
21246;DHT22;10781;50.928;4.440;2023-06-04T04:33:12;13.80;99.90
21246;DHT22;10781;50.928;4.440;2023-06-04T04:35:41;13.80;99.90
21246;DHT22;10781;50.928;4.440;2023-06-04T04:38:07;13.90;99.90
21246;DHT22;10781;50.928;4.440;2023-06-04T04:40:35;14.10;99.90
21246;DHT22;10781;50.928;4.440;2023-06-04T04:43:01;14.20;99.90
21246;DHT22;10781;50.928;4.440;2023-06-04T04:45:26;14.40;99.90
21246;DHT22;10781;50.928;4.440;2023-06-04T04:47:52;14.30;99.90
21246;DHT22;10781;50.928;4.440;2023-06-04T04:50:18;14.20;99.90
21246;DHT22;10781;50.928;4.440;2023-06-04T04:52:43;14.00;99.90
21246;DHT22;10781;50.928;4.440;2023-06-04T04:55:09;14.00;99.90
21246;DHT22;10781;50.928;4.440;2023-06-04T04:57:37;14.00;99.90
21246;DHT22;10781;50.928;4.440;2023-06-04T05:00:04;13.90;99.90
21246;DHT22;10781;50.928;4.440;2023-06-04T05:02:37;13.90;99.90
21246;DHT22;10781;50.928;4.440;2023-06-04T05:05:03;13.80;99.90
21246;DHT22;10781;50.928;4.440;2023-06-04T05:07:29;13.80;99.90
21246;DHT22;10781;50.928;4.440;2023-06-04T05:09:55;13.80;99.90
21246;DHT22;10781;50.928;4.440;2023-06-04T05:12:21;13.90;99.90
21246;DHT22;10781;50.928;4.440;2023-06-04T05:14:46;14.00;99.90
21246;DHT22;10781;50.928;4.440;2023-06-04T05:17:12;14.20;99.90
21246;DHT22;10781;50.928;4.440;2023-06-04T05:19:38;14.40;99.90
21246;DHT22;10781;50.928;4.440;2023-06-04T05:22:04;14.50;99.90
21246;DHT22;10781;50.928;4.440;2023-06-04T05:24:31;14.60;99.90
21246;DHT22;10781;50.928;4.440;2023-06-04T05:26:58;14.50;99.90
21246;DHT22;10781;50.928;4.440;2023-06-04T05:29:24;14.40;99.90
21246;DHT22;10781;50.928;4.440;2023-06-04T05:31:50;14.50;99.90
21246;DHT22;10781;50.928;4.440;2023-06-04T05:34:15;14.50;99.90
21246;DHT22;10781;50.928;4.440;2023-06-04T05:36:42;14.60;99.90
21246;DHT22;10781;50.928;4.440;2023-06-04T05:39:11;14.50;99.90
21246;DHT22;10781;50.928;4.440;2023-06-04T05:41:37;14.60;99.90
21246;DHT22;10781;50.928;4.440;2023-06-04T05:44:03;14.50;99.90
21246;DHT22;10781;50.928;4.440;2023-06-04T05:46:29;14.50;99.90
21246;DHT22;10781;50.928;4.440;2023-06-04T05:48:55;14.50;99.90
21246;DHT22;10781;50.928;4.440;2023-06-04T05:51:20;14.50;99.90
21246;DHT22;10781;50.928;4.440;2023-06-04T05:53:47;14.70;99.90
21246;DHT22;10781;50.928;4.440;2023-06-04T05:56:13;14.90;99.90
21246;DHT22;10781;50.928;4.440;2023-06-04T05:58:38;14.90;99.90
21246;DHT22;10781;50.928;4.440;2023-06-04T06:01:04;14.90;99.90
21246;DHT22;10781;50.928;4.440;2023-06-04T06:03:30;14.90;99.90
21246;DHT22;10781;50.928;4.440;2023-06-04T06:05:57;14.90;99.90
21246;DHT22;10781;50.928;4.440;2023-06-04T06:08:25;15.10;99.90
21246;DHT22;10781;50.928;4.440;2023-06-04T06:10:51;15.20;99.90
21246;DHT22;10781;50.928;4.440;2023-06-04T06:13:16;15.20;99.90
21246;DHT22;10781;50.928;4.440;2023-06-04T06:15:42;15.30;99.90
21246;DHT22;10781;50.928;4.440;2023-06-04T06:18:08;15.30;99.90
21246;DHT22;10781;50.928;4.440;2023-06-04T06:20:34;15.30;99.90
21246;DHT22;10781;50.928;4.440;2023-06-04T06:23:06;15.40;99.90
21246;DHT22;10781;50.928;4.440;2023-06-04T06:25:32;15.50;99.90
21246;DHT22;10781;50.928;4.440;2023-06-04T06:27:57;15.60;99.90
21246;DHT22;10781;50.928;4.440;2023-06-04T06:30:23;15.70;99.90
21246;DHT22;10781;50.928;4.440;2023-06-04T06:32:49;15.90;99.90
21246;DHT22;10781;50.928;4.440;2023-06-04T06:35:15;16.10;99.90
21246;DHT22;10781;50.928;4.440;2023-06-04T06:37:41;16.20;99.90
21246;DHT22;10781;50.928;4.440;2023-06-04T06:40:09;16.30;99.90
21246;DHT22;10781;50.928;4.440;2023-06-04T06:42:35;16.50;99.90
21246;DHT22;10781;50.928;4.440;2023-06-04T06:45:01;16.50;99.90
21246;DHT22;10781;50.928;4.440;2023-06-04T06:47:26;16.60;99.90
21246;DHT22;10781;50.928;4.440;2023-06-04T06:49:52;16.90;99.90
21246;DHT22;10781;50.928;4.440;2023-06-04T06:52:17;16.90;99.90
21246;DHT22;10781;50.928;4.440;2023-06-04T06:54:45;17.00;99.90
21246;DHT22;10781;50.928;4.440;2023-06-04T06:57:11;17.10;99.90
21246;DHT22;10781;50.928;4.440;2023-06-04T06:59:37;17.40;99.90
21246;DHT22;10781;50.928;4.440;2023-06-04T07:02:03;17.50;99.90
21246;DHT22;10781;50.928;4.440;2023-06-04T07:04:29;17.50;99.90
21246;DHT22;10781;50.928;4.440;2023-06-04T07:06:55;17.70;99.90
21246;DHT22;10781;50.928;4.440;2023-06-04T07:09:20;17.80;99.90
21246;DHT22;10781;50.928;4.440;2023-06-04T07:11:46;17.90;99.90
21246;DHT22;10781;50.928;4.440;2023-06-04T07:14:12;18.10;99.90
21246;DHT22;10781;50.928;4.440;2023-06-04T07:16:37;18.30;99.90
21246;DHT22;10781;50.928;4.440;2023-06-04T07:19:03;18.40;99.90
21246;DHT22;10781;50.928;4.440;2023-06-04T07:21:28;18.70;99.90
21246;DHT22;10781;50.928;4.440;2023-06-04T07:23:54;19.40;99.90
21246;DHT22;10781;50.928;4.440;2023-06-04T07:26:20;20.20;99.90
21246;DHT22;10781;50.928;4.440;2023-06-04T07:28:45;21.50;99.90
21246;DHT22;10781;50.928;4.440;2023-06-04T07:31:15;22.50;99.90
21246;DHT22;10781;50.928;4.440;2023-06-04T07:33:41;23.70;98.00
21246;DHT22;10781;50.928;4.440;2023-06-04T07:36:18;25.00;94.20
21246;DHT22;10781;50.928;4.440;2023-06-04T07:38:44;25.00;92.80
21246;DHT22;10781;50.928;4.440;2023-06-04T07:41:10;25.90;87.20
21246;DHT22;10781;50.928;4.440;2023-06-04T07:43:36;26.20;83.90
21246;DHT22;10781;50.928;4.440;2023-06-04T07:46:03;27.10;78.90
21246;DHT22;10781;50.928;4.440;2023-06-04T07:48:28;27.10;76.20
21246;DHT22;10781;50.928;4.440;2023-06-04T07:51:00;27.00;72.80
21246;DHT22;10781;50.928;4.440;2023-06-04T07:53:26;27.10;71.60
21246;DHT22;10781;50.928;4.440;2023-06-04T07:55:53;27.50;68.90
21246;DHT22;10781;50.928;4.440;2023-06-04T07:58:18;27.60;67.50
21246;DHT22;10781;50.928;4.440;2023-06-04T08:00:44;27.90;65.90
21246;DHT22;10781;50.928;4.440;2023-06-04T08:03:10;27.90;63.40
21246;DHT22;10781;50.928;4.440;2023-06-04T08:05:36;28.40;63.40
21246;DHT22;10781;50.928;4.440;2023-06-04T08:08:01;28.80;60.30
21246;DHT22;10781;50.928;4.440;2023-06-04T08:10:29;28.80;61.00
21246;DHT22;10781;50.928;4.440;2023-06-04T08:12:55;28.90;59.00
21246;DHT22;10781;50.928;4.440;2023-06-04T08:15:21;29.10;58.10
21246;DHT22;10781;50.928;4.440;2023-06-04T08:17:46;29.00;57.90
21246;DHT22;10781;50.928;4.440;2023-06-04T08:20:12;28.10;57.70
21246;DHT22;10781;50.928;4.440;2023-06-04T08:22:38;28.30;57.90
21246;DHT22;10781;50.928;4.440;2023-06-04T08:25:04;28.40;57.70
21246;DHT22;10781;50.928;4.440;2023-06-04T08:27:30;29.10;56.20
21246;DHT22;10781;50.928;4.440;2023-06-04T08:29:56;29.10;56.40
21246;DHT22;10781;50.928;4.440;2023-06-04T08:32:23;29.50;56.70
21246;DHT22;10781;50.928;4.440;2023-06-04T08:34:49;30.30;55.90
21246;DHT22;10781;50.928;4.440;2023-06-04T08:37:16;30.50;54.70
21246;DHT22;10781;50.928;4.440;2023-06-04T08:39:42;31.40;54.20
21246;DHT22;10781;50.928;4.440;2023-06-04T08:42:13;31.80;52.70
21246;DHT22;10781;50.928;4.440;2023-06-04T08:44:42;31.40;51.10
21246;DHT22;10781;50.928;4.440;2023-06-04T08:47:09;31.90;50.10
21246;DHT22;10781;50.928;4.440;2023-06-04T08:49:40;32.30;50.40
21246;DHT22;10781;50.928;4.440;2023-06-04T08:52:06;30.70;48.80
21246;DHT22;10781;50.928;4.440;2023-06-04T08:54:32;31.00;49.20
21246;DHT22;10781;50.928;4.440;2023-06-04T08:57:00;30.20;49.20
21246;DHT22;10781;50.928;4.440;2023-06-04T08:59:27;30.60;49.10
21246;DHT22;10781;50.928;4.440;2023-06-04T09:01:56;31.00;48.90
21246;DHT22;10781;50.928;4.440;2023-06-04T09:04:23;30.80;48.50
21246;DHT22;10781;50.928;4.440;2023-06-04T09:06:49;30.20;48.20
21246;DHT22;10781;50.928;4.440;2023-06-04T09:09:15;30.50;48.40
21246;DHT22;10781;50.928;4.440;2023-06-04T09:11:53;30.90;47.70
21246;DHT22;10781;50.928;4.440;2023-06-04T09:14:19;30.50;47.70
21246;DHT22;10781;50.928;4.440;2023-06-04T09:16:46;31.80;47.80
21246;DHT22;10781;50.928;4.440;2023-06-04T09:19:13;31.80;47.00
21246;DHT22;10781;50.928;4.440;2023-06-04T09:21:49;31.30;46.40
21246;DHT22;10781;50.928;4.440;2023-06-04T09:24:15;31.20;46.50
21246;DHT22;10781;50.928;4.440;2023-06-04T09:26:41;31.30;46.20
21246;DHT22;10781;50.928;4.440;2023-06-04T09:29:06;30.90;45.70
21246;DHT22;10781;50.928;4.440;2023-06-04T09:31:32;31.00;46.00
21246;DHT22;10781;50.928;4.440;2023-06-04T09:34:03;31.40;45.50
21246;DHT22;10781;50.928;4.440;2023-06-04T09:36:36;31.80;44.90
21246;DHT22;10781;50.928;4.440;2023-06-04T09:39:18;31.80;44.80
21246;DHT22;10781;50.928;4.440;2023-06-04T09:41:44;31.60;45.50
21246;DHT22;10781;50.928;4.440;2023-06-04T09:44:09;32.50;43.30
21246;DHT22;10781;50.928;4.440;2023-06-04T09:46:37;31.80;42.90
21246;DHT22;10781;50.928;4.440;2023-06-04T09:49:05;31.80;43.30
21246;DHT22;10781;50.928;4.440;2023-06-04T09:51:31;31.70;43.90
21246;DHT22;10781;50.928;4.440;2023-06-04T09:53:59;31.30;44.30
21246;DHT22;10781;50.928;4.440;2023-06-04T09:56:25;31.40;44.10
21246;DHT22;10781;50.928;4.440;2023-06-04T09:58:57;31.80;43.60
21246;DHT22;10781;50.928;4.440;2023-06-04T10:01:26;32.70;43.90
21246;DHT22;10781;50.928;4.440;2023-06-04T10:03:52;33.70;41.60
21246;DHT22;10781;50.928;4.440;2023-06-04T10:06:19;34.50;41.80
21246;DHT22;10781;50.928;4.440;2023-06-04T10:08:49;33.80;40.70
21246;DHT22;10781;50.928;4.440;2023-06-04T10:11:30;34.00;40.00
21246;DHT22;10781;50.928;4.440;2023-06-04T10:16:23;33.90;40.90
21246;DHT22;10781;50.928;4.440;2023-06-04T10:18:49;33.10;42.00
21246;DHT22;10781;50.928;4.440;2023-06-04T10:21:17;32.70;40.80
21246;DHT22;10781;50.928;4.440;2023-06-04T10:23:44;33.90;40.60
21246;DHT22;10781;50.928;4.440;2023-06-04T10:26:16;34.60;41.20
21246;DHT22;10781;50.928;4.440;2023-06-04T10:28:42;35.30;39.60
21246;DHT22;10781;50.928;4.440;2023-06-04T10:31:09;35.40;38.90
21246;DHT22;10781;50.928;4.440;2023-06-04T10:33:36;35.10;40.10
21246;DHT22;10781;50.928;4.440;2023-06-04T10:36:19;34.60;38.60
21246;DHT22;10781;50.928;4.440;2023-06-04T10:38:47;35.00;40.80
21246;DHT22;10781;50.928;4.440;2023-06-04T10:41:17;35.10;38.70
21246;DHT22;10781;50.928;4.440;2023-06-04T10:43:46;36.20;38.10
21246;DHT22;10781;50.928;4.440;2023-06-04T10:46:16;36.00;36.30
21246;DHT22;10781;50.928;4.440;2023-06-04T10:48:52;35.10;37.30
21246;DHT22;10781;50.928;4.440;2023-06-04T10:51:34;35.60;36.60
21246;DHT22;10781;50.928;4.440;2023-06-04T10:54:02;35.50;38.30
21246;DHT22;10781;50.928;4.440;2023-06-04T10:56:33;34.80;38.70
21246;DHT22;10781;50.928;4.440;2023-06-04T10:59:00;34.00;39.60
21246;DHT22;10781;50.928;4.440;2023-06-04T11:01:29;34.00;38.40
21246;DHT22;10781;50.928;4.440;2023-06-04T11:03:57;33.70;37.70
21246;DHT22;10781;50.928;4.440;2023-06-04T11:06:26;34.30;38.60
21246;DHT22;10781;50.928;4.440;2023-06-04T11:09:04;33.80;37.50
21246;DHT22;10781;50.928;4.440;2023-06-04T11:11:32;34.00;38.40
21246;DHT22;10781;50.928;4.440;2023-06-04T11:14:08;35.30;38.60
21246;DHT22;10781;50.928;4.440;2023-06-04T11:16:34;36.40;36.10
21246;DHT22;10781;50.928;4.440;2023-06-04T11:19:00;36.00;36.10
21246;DHT22;10781;50.928;4.440;2023-06-04T11:21:27;36.20;35.70
21246;DHT22;10781;50.928;4.440;2023-06-04T11:23:59;35.90;34.90
21246;DHT22;10781;50.928;4.440;2023-06-04T11:26:34;35.20;36.10
21246;DHT22;10781;50.928;4.440;2023-06-04T11:29:11;35.60;35.00
21246;DHT22;10781;50.928;4.440;2023-06-04T11:31:47;35.20;37.40
21246;DHT22;10781;50.928;4.440;2023-06-04T11:34:30;36.30;34.80
21246;DHT22;10781;50.928;4.440;2023-06-04T11:37:10;36.10;35.50
21246;DHT22;10781;50.928;4.440;2023-06-04T11:39:36;35.60;33.80
21246;DHT22;10781;50.928;4.440;2023-06-04T11:42:07;35.50;34.70
21246;DHT22;10781;50.928;4.440;2023-06-04T11:44:33;35.40;34.70
21246;DHT22;10781;50.928;4.440;2023-06-04T11:46:59;35.30;36.30
21246;DHT22;10781;50.928;4.440;2023-06-04T11:49:25;35.70;34.70
21246;DHT22;10781;50.928;4.440;2023-06-04T11:51:53;35.50;35.00
21246;DHT22;10781;50.928;4.440;2023-06-04T11:54:20;36.10;34.40
21246;DHT22;10781;50.928;4.440;2023-06-04T11:56:48;35.90;34.80
21246;DHT22;10781;50.928;4.440;2023-06-04T11:59:16;36.80;34.60
21246;DHT22;10781;50.928;4.440;2023-06-04T12:01:43;38.60;33.50
21246;DHT22;10781;50.928;4.440;2023-06-04T12:04:16;38.30;33.00
21246;DHT22;10781;50.928;4.440;2023-06-04T12:06:56;37.00;32.80
21246;DHT22;10781;50.928;4.440;2023-06-04T12:09:29;35.80;33.70
21246;DHT22;10781;50.928;4.440;2023-06-04T12:12:00;37.00;33.20
21246;DHT22;10781;50.928;4.440;2023-06-04T12:14:26;38.10;33.00
21246;DHT22;10781;50.928;4.440;2023-06-04T12:16:59;35.60;33.90
21246;DHT22;10781;50.928;4.440;2023-06-04T12:19:26;34.40;33.90
21246;DHT22;10781;50.928;4.440;2023-06-04T12:22:05;34.60;35.40
21246;DHT22;10781;50.928;4.440;2023-06-04T12:24:49;34.60;35.60
21246;DHT22;10781;50.928;4.440;2023-06-04T12:27:19;35.90;34.00
21246;DHT22;10781;50.928;4.440;2023-06-04T12:30:02;36.20;34.20
21246;DHT22;10781;50.928;4.440;2023-06-04T12:32:28;35.50;34.10
21246;DHT22;10781;50.928;4.440;2023-06-04T12:34:55;35.10;34.10
21246;DHT22;10781;50.928;4.440;2023-06-04T12:37:22;34.50;33.50
21246;DHT22;10781;50.928;4.440;2023-06-04T12:39:50;34.70;35.40
21246;DHT22;10781;50.928;4.440;2023-06-04T12:42:17;34.00;35.80
21246;DHT22;10781;50.928;4.440;2023-06-04T12:44:44;34.30;36.20
21246;DHT22;10781;50.928;4.440;2023-06-04T12:47:09;34.50;35.50
21246;DHT22;10781;50.928;4.440;2023-06-04T12:49:35;35.30;34.90
21246;DHT22;10781;50.928;4.440;2023-06-04T12:52:01;36.50;34.00
21246;DHT22;10781;50.928;4.440;2023-06-04T12:54:26;36.50;32.90
21246;DHT22;10781;50.928;4.440;2023-06-04T12:56:53;35.80;33.00
21246;DHT22;10781;50.928;4.440;2023-06-04T12:59:22;34.30;33.80
21246;DHT22;10781;50.928;4.440;2023-06-04T13:01:48;34.20;34.80
21246;DHT22;10781;50.928;4.440;2023-06-04T13:04:13;35.10;34.40
21246;DHT22;10781;50.928;4.440;2023-06-04T13:06:39;35.20;32.40
21246;DHT22;10781;50.928;4.440;2023-06-04T13:09:05;33.50;34.30
21246;DHT22;10781;50.928;4.440;2023-06-04T13:11:44;33.50;34.80
21246;DHT22;10781;50.928;4.440;2023-06-04T13:14:10;34.50;33.30
21246;DHT22;10781;50.928;4.440;2023-06-04T13:16:37;35.80;33.00
21246;DHT22;10781;50.928;4.440;2023-06-04T13:19:03;35.10;32.50
21246;DHT22;10781;50.928;4.440;2023-06-04T13:21:29;35.60;33.50
21246;DHT22;10781;50.928;4.440;2023-06-04T13:23:55;34.40;32.30
21246;DHT22;10781;50.928;4.440;2023-06-04T13:26:21;35.10;33.40
21246;DHT22;10781;50.928;4.440;2023-06-04T13:28:47;35.40;34.00
21246;DHT22;10781;50.928;4.440;2023-06-04T13:31:13;35.10;32.60
21246;DHT22;10781;50.928;4.440;2023-06-04T13:33:39;34.40;33.20
21246;DHT22;10781;50.928;4.440;2023-06-04T13:36:05;35.20;33.80
21246;DHT22;10781;50.928;4.440;2023-06-04T13:38:32;34.50;33.20
21246;DHT22;10781;50.928;4.440;2023-06-04T13:40:58;33.00;33.90
21246;DHT22;10781;50.928;4.440;2023-06-04T13:43:24;33.20;34.80
21246;DHT22;10781;50.928;4.440;2023-06-04T13:45:49;33.70;34.70
21246;DHT22;10781;50.928;4.440;2023-06-04T13:48:15;35.10;32.70
21246;DHT22;10781;50.928;4.440;2023-06-04T13:50:41;34.80;33.00
21246;DHT22;10781;50.928;4.440;2023-06-04T13:53:10;34.60;33.50
21246;DHT22;10781;50.928;4.440;2023-06-04T13:55:38;33.90;33.30
21246;DHT22;10781;50.928;4.440;2023-06-04T13:58:04;33.30;33.50
21246;DHT22;10781;50.928;4.440;2023-06-04T14:00:30;34.00;35.70
21246;DHT22;10781;50.928;4.440;2023-06-04T14:02:56;34.70;33.40
21246;DHT22;10781;50.928;4.440;2023-06-04T14:05:24;34.80;32.80
21246;DHT22;10781;50.928;4.440;2023-06-04T14:07:50;34.70;33.60
21246;DHT22;10781;50.928;4.440;2023-06-04T14:10:16;34.40;32.30
21246;DHT22;10781;50.928;4.440;2023-06-04T14:12:42;35.40;33.50
21246;DHT22;10781;50.928;4.440;2023-06-04T14:15:09;35.20;32.00
21246;DHT22;10781;50.928;4.440;2023-06-04T14:17:40;33.80;33.10
21246;DHT22;10781;50.928;4.440;2023-06-04T14:20:06;33.60;34.10
21246;DHT22;10781;50.928;4.440;2023-06-04T14:22:38;35.30;32.40
21246;DHT22;10781;50.928;4.440;2023-06-04T14:25:05;35.70;30.50
21246;DHT22;10781;50.928;4.440;2023-06-04T14:27:32;35.20;31.30
21246;DHT22;10781;50.928;4.440;2023-06-04T14:29:58;35.30;31.40
21246;DHT22;10781;50.928;4.440;2023-06-04T14:32:23;35.30;31.40
21246;DHT22;10781;50.928;4.440;2023-06-04T14:34:49;34.90;32.00
21246;DHT22;10781;50.928;4.440;2023-06-04T14:37:15;33.50;33.10
21246;DHT22;10781;50.928;4.440;2023-06-04T14:39:41;32.40;33.60
21246;DHT22;10781;50.928;4.440;2023-06-04T14:42:06;32.20;34.30
21246;DHT22;10781;50.928;4.440;2023-06-04T14:44:32;32.50;33.90
21246;DHT22;10781;50.928;4.440;2023-06-04T14:46:58;32.50;33.70
21246;DHT22;10781;50.928;4.440;2023-06-04T14:49:24;32.20;33.10
21246;DHT22;10781;50.928;4.440;2023-06-04T14:51:50;32.20;33.80
21246;DHT22;10781;50.928;4.440;2023-06-04T14:54:15;32.60;33.80
21246;DHT22;10781;50.928;4.440;2023-06-04T14:56:41;32.30;33.40
21246;DHT22;10781;50.928;4.440;2023-06-04T14:59:07;32.00;34.80
21246;DHT22;10781;50.928;4.440;2023-06-04T15:01:37;33.20;35.40
21246;DHT22;10781;50.928;4.440;2023-06-04T15:04:04;32.40;33.40
21246;DHT22;10781;50.928;4.440;2023-06-04T15:06:29;32.80;33.90
21246;DHT22;10781;50.928;4.440;2023-06-04T15:08:55;32.60;34.70
21246;DHT22;10781;50.928;4.440;2023-06-04T15:11:21;32.70;33.80
21246;DHT22;10781;50.928;4.440;2023-06-04T15:13:47;33.00;35.40
21246;DHT22;10781;50.928;4.440;2023-06-04T15:16:12;33.80;34.40
21246;DHT22;10781;50.928;4.440;2023-06-04T15:18:38;34.20;34.30
21246;DHT22;10781;50.928;4.440;2023-06-04T15:21:04;34.70;32.80
21246;DHT22;10781;50.928;4.440;2023-06-04T15:23:29;34.20;34.10
21246;DHT22;10781;50.928;4.440;2023-06-04T15:25:55;33.20;33.40
21246;DHT22;10781;50.928;4.440;2023-06-04T15:28:21;32.30;34.00
21246;DHT22;10781;50.928;4.440;2023-06-04T15:30:46;32.70;34.50
21246;DHT22;10781;50.928;4.440;2023-06-04T15:33:12;32.60;34.30
21246;DHT22;10781;50.928;4.440;2023-06-04T15:35:38;32.00;34.90
21246;DHT22;10781;50.928;4.440;2023-06-04T15:38:03;31.70;35.20
21246;DHT22;10781;50.928;4.440;2023-06-04T15:40:29;32.00;35.60